Time;durP1;ratioP1;P1;durP2;ratioP2;P2;SDS_P1;SDS_P2;PMS_P1;PMS_P2;Temp;Humidity;BMP_temperature;BMP_pressure;BME280_temperature;BME280_humidity;BME280_pressure;Samples;Min_cycle;Max_cycle;Signal;HPM_P1;HPM_P2
2021/04/04 00:00:21;;;;;;;10.43;6.60;;;8.30;56.10;;;;;;4963679;28;20688;-74
2021/04/04 00:02:47;;;;;;;6.80;6.10;;;8.30;56.10;;;;;;4963927;28;20193;-73
2021/04/04 00:05:13;;;;;;;6.87;6.17;;;8.20;55.90;;;;;;4964260;28;20442;-73
2021/04/04 00:07:39;;;;;;;7.57;6.87;;;8.20;55.90;;;;;;4946490;28;20289;-73
2021/04/04 00:10:07;;;;;;;6.70;6.10;;;8.20;55.80;;;;;;4964288;28;20466;-74
2021/04/04 00:12:33;;;;;;;11.20;6.07;;;8.20;55.80;;;;;;4964847;28;20434;-73
2021/04/04 00:14:59;;;;;;;8.33;6.00;;;8.10;55.80;;;;;;4962739;28;20435;-73
2021/04/04 00:17:25;;;;;;;7.23;6.30;;;8.10;56.10;;;;;;4964851;28;20460;-73
2021/04/04 00:19:50;;;;;;;6.43;5.80;;;8.10;56.30;;;;;;4961665;28;20208;-74
2021/04/04 00:22:16;;;;;;;7.53;6.83;;;8.00;56.70;;;;;;4963530;28;20293;-74
2021/04/04 00:24:41;;;;;;;8.80;6.13;;;7.90;57.00;;;;;;4931350;28;20195;-73
2021/04/04 00:27:07;;;;;;;9.10;6.87;;;7.80;57.20;;;;;;4963698;28;20219;-73
2021/04/04 00:29:33;;;;;;;9.90;6.60;;;7.70;57.70;;;;;;4962856;28;20233;-73
2021/04/04 00:31:59;;;;;;;7.90;6.53;;;7.70;58.00;;;;;;4965492;28;20272;-73
2021/04/04 00:34:25;;;;;;;7.67;6.93;;;7.60;57.90;;;;;;4961575;28;20177;-72
2021/04/04 00:36:50;;;;;;;7.30;6.60;;;7.70;58.40;;;;;;4962387;28;20458;-73
2021/04/04 00:39:17;;;;;;;6.20;5.70;;;7.60;57.80;;;;;;4963987;28;20193;-74
2021/04/04 00:41:44;;;;;;;10.73;6.40;;;7.60;58.10;;;;;;4945739;28;20227;-73
2021/04/04 00:44:10;;;;;;;6.20;5.60;;;7.50;58.20;;;;;;4947172;28;20458;-75
2021/04/04 00:46:38;;;;;;;8.20;6.50;;;7.50;58.40;;;;;;4963933;28;20557;-73
2021/04/04 00:49:04;;;;;;;7.80;6.47;;;7.50;58.70;;;;;;4962771;28;20461;-74
2021/04/04 00:51:32;;;;;;;6.37;5.77;;;7.40;58.70;;;;;;4963481;28;20515;-74
2021/04/04 00:53:58;;;;;;;8.63;6.60;;;7.40;59.40;;;;;;4961885;28;20500;-74
2021/04/04 00:56:25;;;;;;;7.93;6.10;;;7.40;59.00;;;;;;4961717;28;20446;-74
2021/04/04 00:58:51;;;;;;;6.40;5.80;;;7.40;59.10;;;;;;4962264;28;20441;-74
2021/04/04 01:01:16;;;;;;;6.47;5.80;;;7.40;59.40;;;;;;4963921;28;20960;-74
2021/04/04 01:03:42;;;;;;;7.50;5.97;;;7.40;59.40;;;;;;4961305;28;20449;-73
2021/04/04 01:06:08;;;;;;;6.70;5.50;;;7.40;59.60;;;;;;4940903;28;20627;-73
2021/04/04 01:08:39;;;;;;;6.63;6.03;;;7.30;59.90;;;;;;4962664;28;20211;-73
2021/04/04 01:11:07;;;;;;;9.50;6.70;;;7.20;60.30;;;;;;4962817;28;21011;-73
2021/04/04 01:13:54;;;;;;;7.27;6.03;;;7.10;60.90;;;;;;4959436;28;20434;-73
2021/04/04 01:16:26;;;;;;;6.70;6.00;;;7.10;61.30;;;;;;4962677;28;20961;-73
2021/04/04 01:19:10;;;;;;;9.03;6.20;;;6.90;62.20;;;;;;4962737;28;20494;-74
2021/04/04 01:21:41;;;;;;;6.63;5.70;;;6.90;62.90;;;;;;4960757;28;20476;-73
2021/04/04 01:24:25;;;;;;;8.17;5.90;;;6.80;63.80;;;;;;4962672;28;20457;-74
2021/04/04 01:27:07;;;;;;;7.57;5.90;;;6.80;64.40;;;;;;4963024;28;20473;-73
2021/04/04 01:29:35;;;;;;;8.97;6.43;;;6.80;64.60;;;;;;4962713;28;20445;-74
2021/04/04 01:32:01;;;;;;;7.70;5.77;;;6.70;65.30;;;;;;4961387;28;20438;-74
2021/04/04 01:34:28;;;;;;;7.17;5.53;;;6.60;66.30;;;;;;4963324;28;20438;-74
2021/04/04 01:37:00;;;;;;;10.07;6.13;;;6.50;66.90;;;;;;4962700;28;20901;-73
2021/04/04 01:39:29;;;;;;;8.60;5.93;;;6.50;67.90;;;;;;4963723;28;20457;-73
2021/04/04 01:41:56;;;;;;;9.77;5.50;;;6.50;68.80;;;;;;4961195;28;20447;-73
2021/04/04 01:44:24;;;;;;;8.27;5.80;;;6.50;69.80;;;;;;4960593;28;20450;-73
2021/04/04 01:46:54;;;;;;;8.93;6.00;;;6.50;70.70;;;;;;4959774;28;20913;-74
2021/04/04 01:49:21;;;;;;;6.23;5.57;;;6.50;70.80;;;;;;4963224;28;20452;-73
2021/04/04 01:51:47;;;;;;;6.93;6.27;;;6.50;71.00;;;;;;4962113;28;20528;-73
2021/04/04 01:54:15;;;;;;;7.20;5.57;;;6.50;71.10;;;;;;4942036;28;20528;-73
2021/04/04 01:56:42;;;;;;;8.97;5.40;;;6.40;72.00;;;;;;4960927;28;20476;-73
2021/04/04 01:59:09;;;;;;;7.73;6.20;;;6.40;72.90;;;;;;4961517;28;20469;-73
2021/04/04 02:01:36;;;;;;;6.33;5.73;;;6.40;73.60;;;;;;4939984;28;20839;-73
2021/04/04 02:04:07;;;;;;;8.07;5.63;;;6.40;74.10;;;;;;4960803;28;20473;-74
2021/04/04 02:06:36;;;;;;;7.80;6.40;;;6.40;74.40;;;;;;4962341;28;20477;-74
2021/04/04 02:09:05;;;;;;;6.97;5.40;;;6.40;75.00;;;;;;4962666;28;20517;-74
2021/04/04 02:11:33;;;;;;;8.63;5.43;;;6.40;75.00;;;;;;4938989;28;20592;-74
2021/04/04 02:14:02;;;;;;;5.87;5.33;;;6.40;74.80;;;;;;4961284;28;20445;-73
2021/04/04 02:16:28;;;;;;;6.20;5.60;;;6.40;75.10;;;;;;4962586;28;20951;-73
2021/04/04 02:18:54;;;;;;;6.77;5.77;;;6.40;75.70;;;;;;4942096;28;20455;-73
2021/04/04 02:21:20;;;;;;;13.20;5.70;;;6.40;75.90;;;;;;4960728;28;20455;-73
2021/04/04 02:23:46;;;;;;;6.00;5.20;;;6.30;76.40;;;;;;4960931;28;20916;-73
2021/04/04 02:26:13;;;;;;;7.07;5.30;;;6.30;76.70;;;;;;4961911;28;20441;-73
2021/04/04 02:28:39;;;;;;;5.43;4.93;;;6.30;77.20;;;;;;4960740;28;20492;-73
2021/04/04 02:31:05;;;;;;;8.17;5.80;;;6.30;77.20;;;;;;4962062;28;20466;-73
2021/04/04 02:33:44;;;;;;;7.13;5.73;;;6.30;77.40;;;;;;4942351;28;20546;-73
2021/04/04 02:36:12;;;;;;;7.93;5.50;;;6.30;78.60;;;;;;4963909;28;20448;-73
2021/04/04 02:38:43;;;;;;;6.17;5.57;;;6.30;79.50;;;;;;4961939;28;20496;-73
2021/04/04 02:41:10;;;;;;;6.60;6.00;;;6.30;79.60;;;;;;4962989;28;20469;-73
2021/04/04 02:43:38;;;;;;;7.23;5.27;;;6.30;79.50;;;;;;4959110;28;20445;-74
2021/04/04 02:46:09;;;;;;;7.53;5.63;;;6.20;79.90;;;;;;4966861;28;20430;-74
2021/04/04 02:48:43;;;;;;;7.50;6.40;;;6.20;80.90;;;;;;4962916;28;20461;-73
2021/04/04 02:51:13;;;;;;;6.27;5.40;;;6.10;81.50;;;;;;4947009;28;20452;-73
2021/04/04 02:53:45;;;;;;;7.17;5.43;;;6.20;82.20;;;;;;4960478;28;20954;-73
2021/04/04 02:56:13;;;;;;;6.07;5.33;;;6.10;82.30;;;;;;4958138;28;20814;-73
2021/04/04 02:58:40;;;;;;;6.07;5.43;;;6.10;82.40;;;;;;4947380;28;20454;-73
2021/04/04 03:01:07;;;;;;;6.60;5.37;;;6.00;82.20;;;;;;4962561;28;20462;-73
2021/04/04 03:03:36;;;;;;;5.80;5.30;;;5.90;81.80;;;;;;4961443;28;20589;-73
2021/04/04 03:06:08;;;;;;;7.30;5.60;;;5.80;82.70;;;;;;4960771;28;20817;-74
2021/04/04 03:08:39;;;;;;;5.80;5.30;;;5.70;84.20;;;;;;4962856;28;20474;-74
2021/04/04 03:11:05;;;;;;;5.60;5.10;;;5.60;85.40;;;;;;4958905;28;20532;-74
2021/04/04 03:13:32;;;;;;;6.90;4.70;;;5.50;86.10;;;;;;4961174;28;20651;-74
2021/04/04 03:15:58;;;;;;;6.43;5.70;;;5.40;87.00;;;;;;4962043;28;20481;-74
2021/04/04 03:18:26;;;;;;;7.67;5.30;;;5.30;88.20;;;;;;4965213;28;20523;-73
2021/04/04 03:20:53;;;;;;;5.23;4.83;;;5.30;89.80;;;;;;4963456;28;20469;-73
2021/04/04 03:23:20;;;;;;;5.43;4.90;;;5.30;90.10;;;;;;4959939;28;20492;-72
2021/04/04 03:25:47;;;;;;;6.17;5.57;;;5.30;90.20;;;;;;4964708;28;20442;-73
2021/04/04 03:28:16;;;;;;;7.83;5.80;;;5.30;90.10;;;;;;4949484;28;20839;-73
2021/04/04 03:30:44;;;;;;;5.80;5.10;;;5.40;90.30;;;;;;4965351;28;20483;-73
2021/04/04 03:33:19;;;;;;;5.40;4.90;;;5.40;90.60;;;;;;4965736;28;20441;-74
2021/04/04 03:35:47;;;;;;;6.17;5.23;;;5.40;90.50;;;;;;4965951;28;21058;-74
2021/04/04 03:38:15;;;;;;;6.80;4.70;;;5.50;90.50;;;;;;4944294;28;20445;-74
2021/04/04 03:40:42;;;;;;;8.43;5.20;;;5.40;90.80;;;;;;4966971;28;20473;-74
2021/04/04 03:43:30;;;;;;;5.60;4.83;;;5.50;91.00;;;;;;4966142;28;20442;-73
2021/04/04 03:46:03;;;;;;;9.87;5.23;;;5.50;90.70;;;;;;4968157;28;20446;-73
2021/04/04 03:48:30;;;;;;;6.67;5.50;;;5.50;90.40;;;;;;4966851;28;20516;-73
2021/04/04 03:50:58;;;;;;;8.10;4.60;;;5.50;90.40;;;;;;4964574;28;20550;-73
2021/04/04 03:53:26;;;;;;;5.07;4.67;;;5.50;90.60;;;;;;4964026;28;20517;-73
2021/04/04 03:55:54;;;;;;;5.53;5.07;;;5.50;90.90;;;;;;4963189;28;20442;-73
2021/04/04 03:58:23;;;;;;;5.57;5.07;;;5.50;90.90;;;;;;4967888;28;20437;-74
2021/04/04 04:00:52;;;;;;;6.40;5.70;;;5.50;91.00;;;;;;4963436;28;20520;-73
2021/04/04 04:03:19;;;;;;;5.77;5.27;;;5.40;91.10;;;;;;4963854;28;20442;-73
2021/04/04 04:05:47;;;;;;;5.90;5.10;;;5.40;91.40;;;;;;4965137;28;20870;-73
2021/04/04 04:08:13;;;;;;;5.30;4.73;;;5.30;91.60;;;;;;4950487;28;20469;-74
2021/04/04 04:10:40;;;;;;;6.40;5.80;;;5.30;91.70;;;;;;4963838;28;20572;-73
2021/04/04 04:13:07;;;;;;;7.27;5.17;;;5.30;92.00;;;;;;4962119;28;20545;-72
2021/04/04 04:15:33;;;;;;;5.80;5.30;;;5.20;92.10;;;;;;4962032;28;20509;-73
2021/04/04 04:18:00;;;;;;;9.93;5.23;;;5.20;92.10;;;;;;4962214;28;20452;-73
2021/04/04 04:20:27;;;;;;;6.87;4.83;;;5.20;92.40;;;;;;4964210;28;20502;-73
2021/04/04 04:22:53;;;;;;;6.20;5.50;;;5.20;92.40;;;;;;4963704;28;21116;-73
2021/04/04 04:25:19;;;;;;;4.90;4.47;;;5.20;92.50;;;;;;4964007;28;20456;-73
2021/04/04 04:27:45;;;;;;;7.27;4.80;;;5.20;92.60;;;;;;4959594;28;20476;-74
2021/04/04 04:30:12;;;;;;;6.10;5.50;;;5.20;92.90;;;;;;4965894;28;20454;-74
2021/04/04 04:32:41;;;;;;;5.00;4.50;;;5.10;93.40;;;;;;4965782;28;20972;-73
2021/04/04 04:35:08;;;;;;;5.70;4.57;;;5.10;93.50;;;;;;4947664;28;20856;-73
2021/04/04 04:37:36;;;;;;;6.77;4.77;;;5.10;93.80;;;;;;4964600;28;20944;-77
2021/04/04 04:40:08;;;;;;;5.70;5.10;;;5.10;94.00;;;;;;4961795;28;20558;-73
2021/04/04 04:42:36;;;;;;;6.13;4.77;;;5.10;94.10;;;;;;4964442;28;20434;-69
2021/04/04 04:45:03;;;;;;;6.17;5.10;;;5.10;94.10;;;;;;4962512;28;20533;-74
2021/04/04 04:47:29;;;;;;;5.33;4.57;;;5.10;94.20;;;;;;4967054;28;20473;-73
2021/04/04 04:49:56;;;;;;;7.73;4.63;;;5.10;94.50;;;;;;4964771;28;20489;-74
2021/04/04 04:52:25;;;;;;;5.10;4.70;;;5.10;93.90;;;;;;4963025;28;20485;-74
2021/04/04 04:54:51;;;;;;;7.50;5.23;;;5.10;94.50;;;;;;4959746;28;20493;-74
2021/04/04 04:57:18;;;;;;;8.20;6.47;;;5.10;94.40;;;;;;4962864;28;20438;-74
2021/04/04 04:59:47;;;;;;;5.40;4.90;;;5.10;94.60;;;;;;4959368;28;20536;-73
2021/04/04 05:02:15;;;;;;;5.30;4.80;;;5.00;94.90;;;;;;4946422;28;20757;-74
2021/04/04 05:04:41;;;;;;;5.83;5.10;;;5.00;94.60;;;;;;4960966;28;20441;-74
2021/04/04 05:07:07;;;;;;;5.30;4.67;;;4.90;94.90;;;;;;4964841;28;20968;-75
2021/04/04 05:09:34;;;;;;;7.27;5.17;;;4.80;95.40;;;;;;4964393;28;20550;-75
2021/04/04 05:12:02;;;;;;;5.70;4.73;;;4.70;96.10;;;;;;4963723;28;22083;-74
2021/04/04 05:14:27;;;;;;;5.30;4.80;;;4.60;95.90;;;;;;4961433;28;20505;-74
2021/04/04 05:16:54;;;;;;;5.70;5.10;;;4.50;96.30;;;;;;4964247;28;20517;-74
2021/04/04 05:19:21;;;;;;;7.70;6.00;;;4.50;97.20;;;;;;4964100;28;20672;-74
2021/04/04 05:21:46;;;;;;;6.47;4.97;;;4.50;97.80;;;;;;4961806;28;20453;-74
2021/04/04 05:24:15;;;;;;;5.73;5.13;;;4.50;98.30;;;;;;4964992;28;20939;-74
2021/04/04 05:26:43;;;;;;;9.57;5.40;;;4.50;98.50;;;;;;4963804;28;20551;-74
2021/04/04 05:29:10;;;;;;;7.27;4.93;;;4.60;98.80;;;;;;4959770;28;20537;-75
2021/04/04 05:31:50;;;;;;;5.17;4.73;;;4.60;98.80;;;;;;4965175;28;20480;-74
2021/04/04 05:34:18;;;;;;;8.43;4.70;;;4.60;99.60;;;;;;4961637;28;20425;-74
2021/04/04 05:37:03;;;;;;;6.50;5.57;;;4.60;99.70;;;;;;4962284;28;20445;-74
2021/04/04 05:39:31;;;;;;;6.50;5.87;;;4.60;99.80;;;;;;4964765;28;20434;-74
2021/04/04 05:41:59;;;;;;;5.87;5.40;;;4.60;99.70;;;;;;4962605;28;20452;-76
2021/04/04 05:44:36;;;;;;;14.33;5.53;;;4.60;99.90;;;;;;4963779;28;20480;-73
2021/04/04 05:47:06;;;;;;;11.00;5.00;;;4.70;99.80;;;;;;4960313;28;20573;-74
2021/04/04 05:49:53;;;;;;;4.43;4.13;;;4.80;99.50;;;;;;4960153;28;20433;-75
2021/04/04 05:52:31;;;;;;;5.17;4.70;;;4.80;99.10;;;;;;4939294;28;20430;-75
2021/04/04 05:55:13;;;;;;;6.93;5.53;;;4.90;98.90;;;;;;4941639;28;20453;-75
2021/04/04 05:57:52;;;;;;;6.60;5.40;;;4.90;98.60;;;;;;4963821;28;20440;-75
2021/04/04 06:00:19;;;;;;;6.70;5.40;;;5.00;98.50;;;;;;4962263;28;20635;-74
2021/04/04 06:03:15;;;;;;;5.73;5.23;;;5.10;98.30;;;;;;4963805;28;20433;-73
2021/04/04 06:06:27;;;;;;;6.23;5.13;;;5.20;98.00;;;;;;4962655;28;20456;-74
2021/04/04 06:09:04;;;;;;;5.80;5.20;;;5.20;97.70;;;;;;4964761;28;20453;-75
2021/04/04 06:11:51;;;;;;;5.60;5.10;;;5.20;97.40;;;;;;4964505;28;20446;-74
2021/04/04 06:14:27;;;;;;;6.53;4.83;;;5.30;97.20;;;;;;4962484;28;20436;-74
2021/04/04 06:16:57;;;;;;;6.10;4.90;;;5.40;97.10;;;;;;4963864;28;20441;-74
2021/04/04 06:19:43;;;;;;;5.70;5.00;;;5.50;96.90;;;;;;4962356;28;20951;-74
2021/04/04 06:22:31;;;;;;;5.60;5.00;;;5.60;96.60;;;;;;4964250;28;20446;-74
2021/04/04 06:25:09;;;;;;;5.20;4.70;;;5.60;96.50;;;;;;4958413;28;20439;-74
2021/04/04 06:27:40;;;;;;;6.43;4.80;;;5.80;96.30;;;;;;4960079;28;20505;-74
2021/04/04 06:30:50;;;;;;;5.20;4.53;;;5.90;95.80;;;;;;4962167;28;20465;-74
2021/04/04 06:33:49;;;;;;;7.33;4.90;;;6.00;95.20;;;;;;4959536;28;20421;-74
2021/04/04 06:36:29;;;;;;;5.40;4.90;;;6.00;94.40;;;;;;4961248;28;20442;-75
2021/04/04 06:39:05;;;;;;;7.40;5.73;;;6.10;94.10;;;;;;4962392;28;20438;-75
2021/04/04 06:41:49;;;;;;;8.37;6.57;;;6.10;94.10;;;;;;4960725;28;20438;-75
2021/04/04 06:44:19;;;;;;;6.53;5.93;;;6.20;94.10;;;;;;4962791;28;20785;-75
2021/04/04 06:46:55;;;;;;;9.80;6.30;;;6.30;94.00;;;;;;4961971;28;20449;-74
2021/04/04 06:49:21;;;;;;;7.03;6.27;;;6.40;93.80;;;;;;4959458;28;20928;-74
2021/04/04 06:52:16;;;;;;;6.43;5.70;;;6.50;93.30;;;;;;4963128;28;20525;-75
2021/04/04 06:55:03;;;;;;;7.27;6.13;;;6.60;93.20;;;;;;4961397;28;20535;-74
2021/04/04 06:58:06;;;;;;;6.93;6.23;;;6.70;93.00;;;;;;4959263;28;20902;-75
2021/04/04 07:01:04;;;;;;;7.87;6.63;;;6.80;92.50;;;;;;4963733;28;20460;-74
2021/04/04 07:03:43;;;;;;;7.07;5.57;;;6.90;92.10;;;;;;4966807;28;20804;-75
2021/04/04 07:06:23;;;;;;;8.43;7.43;;;6.90;92.00;;;;;;4963953;28;20434;-75
2021/04/04 07:08:52;;;;;;;10.10;6.20;;;7.00;91.70;;;;;;4962480;28;20468;-75
2021/04/04 07:11:32;;;;;;;10.80;6.30;;;7.00;91.40;;;;;;4963982;28;20446;-75
2021/04/04 07:14:06;;;;;;;7.20;6.50;;;7.10;91.30;;;;;;4963860;28;20963;-74
2021/04/04 07:17:08;;;;;;;6.17;5.63;;;7.20;91.00;;;;;;4966058;28;20495;-75
2021/04/04 07:19:50;;;;;;;9.20;6.90;;;7.30;90.30;;;;;;4967753;28;20433;-73
2021/04/04 07:22:34;;;;;;;10.07;7.10;;;7.30;90.00;;;;;;4960580;28;20449;-74
2021/04/04 07:25:21;;;;;;;11.93;6.93;;;7.50;88.80;;;;;;4965266;28;20438;-74
2021/04/04 07:28:06;;;;;;;10.03;7.10;;;7.50;88.20;;;;;;4965773;28;21110;-75
2021/04/04 07:30:38;;;;;;;7.90;5.73;;;7.70;87.60;;;;;;4965649;28;20470;-74
2021/04/04 07:33:28;;;;;;;8.83;7.37;;;7.80;86.90;;;;;;4966210;28;20854;-74
2021/04/04 07:36:00;;;;;;;7.83;6.70;;;7.90;86.00;;;;;;4967243;28;20423;-76
2021/04/04 07:38:32;;;;;;;7.33;6.73;;;8.00;85.40;;;;;;4966277;28;20436;-75
2021/04/04 07:41:07;;;;;;;8.20;7.40;;;8.10;84.80;;;;;;4963859;28;20838;-74
2021/04/04 07:43:57;;;;;;;9.77;7.33;;;8.20;84.30;;;;;;4967087;28;20532;-74
2021/04/04 07:46:31;;;;;;;9.60;7.43;;;8.30;84.10;;;;;;4962958;28;20550;-75
2021/04/04 07:49:30;;;;;;;8.80;6.90;;;8.30;83.10;;;;;;4964025;28;20506;-75
2021/04/04 07:52:00;;;;;;;10.60;7.67;;;8.30;82.90;;;;;;4965011;28;20951;-75
2021/04/04 07:54:37;;;;;;;11.43;7.37;;;8.50;82.80;;;;;;4964447;28;20422;-73
2021/04/04 07:57:17;;;;;;;11.00;7.80;;;8.50;82.40;;;;;;4960052;28;20499;-73
2021/04/04 07:59:48;;;;;;;8.17;7.27;;;8.60;82.50;;;;;;4964709;28;20476;-73
2021/04/04 08:02:35;;;;;;;10.40;7.00;;;8.70;82.10;;;;;;4965195;28;20450;-76
2021/04/04 08:05:13;;;;;;;8.37;7.10;;;8.70;81.90;;;;;;4963811;28;20441;-74
2021/04/04 08:07:59;;;;;;;18.70;8.53;;;8.80;81.20;;;;;;4947510;28;20492;-75
2021/04/04 08:10:33;;;;;;;9.30;7.60;;;9.00;80.20;;;;;;4964583;28;20887;-75
2021/04/04 08:13:10;;;;;;;9.50;7.50;;;9.10;80.10;;;;;;4964681;28;20446;-75
2021/04/04 08:15:57;;;;;;;8.70;7.20;;;9.20;80.00;;;;;;4950918;28;20473;-74
2021/04/04 08:18:24;;;;;;;9.93;7.67;;;9.30;79.40;;;;;;4947659;28;20500;-75
2021/04/04 08:20:52;;;;;;;11.57;7.90;;;9.30;79.10;;;;;;4959067;28;20977;-75
2021/04/04 08:23:31;;;;;;;12.20;7.97;;;9.40;78.80;;;;;;4947862;28;20446;-73
2021/04/04 08:26:04;;;;;;;11.10;8.27;;;9.60;78.50;;;;;;4959078;28;20452;-73
2021/04/04 08:28:47;;;;;;;9.33;7.60;;;9.70;78.30;;;;;;4963240;28;21050;-75
2021/04/04 08:31:42;;;;;;;9.10;7.80;;;9.90;77.50;;;;;;4965142;28;20509;-74
2021/04/04 08:34:11;;;;;;;7.77;6.73;;;10.00;75.10;;;;;;4948289;28;20470;-75
2021/04/04 08:36:57;;;;;;;9.07;7.57;;;10.10;74.30;;;;;;4961579;28;20439;-74
2021/04/04 08:39:27;;;;;;;9.30;7.40;;;10.20;74.50;;;;;;4962950;28;20810;-75
2021/04/04 08:41:54;;;;;;;11.03;7.30;;;10.30;73.80;;;;;;4951054;28;20988;-74
2021/04/04 08:44:33;;;;;;;17.47;7.30;;;10.40;72.80;;;;;;4964953;28;20464;-73
2021/04/04 08:47:09;;;;;;;8.87;7.50;;;10.70;72.00;;;;;;4947590;28;20496;-74
2021/04/04 08:49:36;;;;;;;8.70;7.50;;;11.10;71.00;;;;;;4969019;28;20879;-75
2021/04/04 08:52:19;;;;;;;11.53;7.60;;;12.30;69.40;;;;;;4967337;28;20433;-74
2021/04/04 08:54:54;;;;;;;11.17;7.93;;;14.50;64.90;;;;;;4962747;28;20503;-74
2021/04/04 08:57:36;;;;;;;10.50;7.13;;;16.50;57.10;;;;;;4966854;28;21012;-73
2021/04/04 09:00:06;;;;;;;10.93;7.80;;;18.50;54.10;;;;;;4947819;28;20509;-74
2021/04/04 09:02:54;;;;;;;11.53;7.60;;;20.60;50.50;;;;;;4946541;28;20486;-74
2021/04/04 09:05:28;;;;;;;9.20;7.07;;;21.50;45.10;;;;;;4953917;28;20496;-73
2021/04/04 09:07:59;;;;;;;9.30;6.60;;;23.30;43.60;;;;;;4965795;28;20474;-73
2021/04/04 09:10:28;;;;;;;8.33;6.80;;;24.70;40.10;;;;;;4964602;28;20835;-76
2021/04/04 09:12:55;;;;;;;8.17;7.10;;;25.50;36.50;;;;;;4962952;28;20442;-74
2021/04/04 09:15:21;;;;;;;8.50;7.53;;;26.00;35.00;;;;;;4959363;28;20465;-74
2021/04/04 09:17:57;;;;;;;7.17;6.50;;;27.10;34.30;;;;;;4961320;28;20461;-74
2021/04/04 09:20:34;;;;;;;7.60;6.90;;;28.10;33.10;;;;;;4963454;28;20500;-75
2021/04/04 09:23:03;;;;;;;8.00;7.03;;;28.90;32.40;;;;;;4963243;28;20477;-74
2021/04/04 09:25:33;;;;;;;8.40;7.60;;;29.80;31.70;;;;;;4964185;28;20434;-74
2021/04/04 09:28:00;;;;;;;8.00;6.90;;;30.30;30.00;;;;;;4961567;28;20968;-75
2021/04/04 09:30:33;;;;;;;8.33;7.40;;;30.90;29.40;;;;;;4963490;28;20975;-74
2021/04/04 09:33:09;;;;;;;8.00;7.20;;;31.50;28.90;;;;;;4961165;28;20460;-74
2021/04/04 09:35:35;;;;;;;7.70;6.80;;;31.80;27.80;;;;;;4964073;28;21067;-75
2021/04/04 09:38:07;;;;;;;10.03;7.80;;;32.10;27.90;;;;;;4945414;28;20449;-75
2021/04/04 09:40:34;;;;;;;8.10;7.30;;;32.70;27.40;;;;;;4960209;28;20568;-75
2021/04/04 09:43:12;;;;;;;7.27;6.67;;;33.20;27.00;;;;;;4961294;28;20442;-75
2021/04/04 09:45:39;;;;;;;8.27;7.47;;;33.20;26.60;;;;;;4961184;28;20456;-76
2021/04/04 09:48:18;;;;;;;9.30;7.60;;;33.40;26.30;;;;;;4958001;28;20540;-75
2021/04/04 09:50:44;;;;;;;8.07;7.27;;;33.70;26.80;;;;;;4949665;28;20836;-74
2021/04/04 09:53:09;;;;;;;9.53;8.63;;;33.90;25.80;;;;;;4958093;28;20435;-75
2021/04/04 09:55:35;;;;;;;9.37;8.57;;;34.00;25.70;;;;;;4945304;28;21195;-75
2021/04/04 09:58:03;;;;;;;7.43;6.83;;;34.20;25.50;;;;;;4961968;28;20550;-73
2021/04/04 10:00:38;;;;;;;7.30;6.70;;;34.20;25.40;;;;;;4964921;28;20300;-76
2021/04/04 10:03:18;;;;;;;8.10;7.30;;;34.00;25.30;;;;;;4964358;28;21122;-74
2021/04/04 10:05:48;;;;;;;9.20;6.60;;;33.60;24.80;;;;;;4956653;28;20476;-75
2021/04/04 10:08:16;;;;;;;10.00;6.87;;;32.90;25.40;;;;;;4961030;28;20576;-75
2021/04/04 10:10:44;;;;;;;9.57;7.40;;;32.40;25.20;;;;;;4961877;28;20523;-75
2021/04/04 10:13:10;;;;;;;8.10;7.30;;;31.40;25.60;;;;;;4960091;28;21058;-75
2021/04/04 10:15:48;;;;;;;7.60;6.83;;;30.70;26.50;;;;;;4964102;28;20423;-75
2021/04/04 10:18:14;;;;;;;8.23;7.40;;;29.70;26.60;;;;;;4961061;28;20197;-77
2021/04/04 10:20:42;;;;;;;7.43;6.80;;;29.00;27.20;;;;;;4961481;28;20876;-76
2021/04/04 10:23:09;;;;;;;8.13;7.17;;;28.60;28.00;;;;;;4960043;28;20537;-75
2021/04/04 10:25:37;;;;;;;6.67;6.00;;;28.30;27.50;;;;;;4963744;28;20473;-76
2021/04/04 10:28:08;;;;;;;7.17;6.30;;;27.40;27.20;;;;;;4960470;28;20497;-76
2021/04/04 10:30:39;;;;;;;6.80;6.07;;;26.70;28.40;;;;;;4962942;28;20463;-77
2021/04/04 10:33:26;;;;;;;6.17;5.67;;;26.20;28.60;;;;;;4963290;28;21007;-78
2021/04/04 10:35:53;;;;;;;7.50;5.30;;;25.90;28.80;;;;;;4963349;28;20430;-73
2021/04/04 10:38:25;;;;;;;6.53;5.83;;;25.90;28.60;;;;;;4944580;28;20696;-76
2021/04/04 10:40:58;;;;;;;6.00;5.50;;;26.10;28.40;;;;;;4963610;28;20968;-76
2021/04/04 10:43:42;;;;;;;5.77;5.27;;;26.50;28.40;;;;;;4964716;28;20433;-75
2021/04/04 10:46:09;;;;;;;7.27;6.20;;;26.70;28.30;;;;;;4966667;28;20425;-76
2021/04/04 10:48:40;;;;;;;5.93;5.30;;;25.80;28.60;;;;;;4966944;28;20544;-76
2021/04/04 10:51:08;;;;;;;6.77;5.53;;;25.30;29.20;;;;;;4961590;28;20859;-76
2021/04/04 10:53:35;;;;;;;6.50;5.90;;;25.00;29.30;;;;;;4964688;28;20417;-76
2021/04/04 10:56:01;;;;;;;7.13;6.43;;;24.60;29.50;;;;;;4961802;28;20426;-76
2021/04/04 10:58:28;;;;;;;6.53;5.40;;;24.00;29.30;;;;;;4964252;28;21113;-76
2021/04/04 11:00:55;;;;;;;6.40;5.80;;;23.70;29.70;;;;;;4962691;28;20468;-76
2021/04/04 11:03:22;;;;;;;7.60;6.80;;;23.50;29.90;;;;;;4965024;28;20449;-76
2021/04/04 11:05:49;;;;;;;6.53;5.90;;;23.70;30.00;;;;;;4961307;28;20437;-76
2021/04/04 11:08:16;;;;;;;7.17;6.00;;;24.10;30.30;;;;;;4965524;28;20477;-76
2021/04/04 11:10:42;;;;;;;7.63;6.10;;;25.40;31.20;;;;;;4966515;28;21280;-77
2021/04/04 11:13:08;;;;;;;7.17;6.47;;;27.50;29.70;;;;;;4965236;28;20421;-76
2021/04/04 11:15:37;;;;;;;5.70;5.20;;;27.80;28.00;;;;;;4963071;28;20422;-76
2021/04/04 11:18:14;;;;;;;6.30;5.80;;;28.80;27.70;;;;;;4965541;28;20190;-75
2021/04/04 11:20:41;;;;;;;6.13;5.63;;;30.20;27.00;;;;;;4963590;28;21160;-76
2021/04/04 11:23:10;;;;;;;6.60;6.10;;;32.00;26.00;;;;;;4963745;28;20437;-76
2021/04/04 11:25:36;;;;;;;6.83;6.00;;;33.60;25.20;;;;;;4948091;28;20449;-76
2021/04/04 11:28:14;;;;;;;7.40;5.80;;;34.40;24.20;;;;;;4962316;28;20532;-76
2021/04/04 11:30:41;;;;;;;6.53;5.93;;;34.60;23.60;;;;;;4962666;28;20453;-76
2021/04/04 11:33:16;;;;;;;6.47;5.97;;;34.60;23.30;;;;;;4966633;28;20452;-75
2021/04/04 11:36:00;;;;;;;7.53;5.20;;;35.10;23.30;;;;;;4938201;28;21246;-76
2021/04/04 11:38:27;;;;;;;6.23;5.50;;;35.90;22.90;;;;;;4965492;28;20509;-76
2021/04/04 11:41:12;;;;;;;7.00;6.50;;;34.30;22.00;;;;;;4965636;28;20458;-75
2021/04/04 11:43:39;;;;;;;6.00;5.40;;;32.80;23.30;;;;;;4963813;28;20437;-75
2021/04/04 11:46:05;;;;;;;6.33;5.83;;;31.50;23.80;;;;;;4967040;28;20449;-75
2021/04/04 11:48:31;;;;;;;6.03;5.43;;;31.70;24.20;;;;;;4962627;28;20452;-77
2021/04/04 11:51:12;;;;;;;6.20;5.60;;;32.20;24.40;;;;;;4965166;28;20439;-76
2021/04/04 11:53:48;;;;;;;7.63;6.87;;;33.50;24.00;;;;;;4965975;28;20452;-76
2021/04/04 11:56:49;;;;;;;6.37;5.77;;;35.10;23.70;;;;;;4964946;28;20430;-77
2021/04/04 11:59:15;;;;;;;5.73;5.37;;;36.10;22.80;;;;;;4961461;28;20443;-77
2021/04/04 12:01:41;;;;;;;5.90;5.40;;;36.40;22.70;;;;;;4932521;28;20963;-75
2021/04/04 12:04:17;;;;;;;6.00;5.50;;;35.30;22.80;;;;;;4962973;28;20673;-75
2021/04/04 12:06:43;;;;;;;6.40;5.70;;;34.60;23.20;;;;;;4945612;28;20551;-76
2021/04/04 12:09:10;;;;;;;6.73;6.20;;;33.80;23.10;;;;;;4967434;28;20552;-76
2021/04/04 12:11:35;;;;;;;6.37;5.87;;;32.00;23.30;;;;;;4961352;28;20660;-76
2021/04/04 12:14:01;;;;;;;6.87;5.70;;;31.40;24.20;;;;;;4967004;28;20420;-75
2021/04/04 12:16:44;;;;;;;6.37;5.80;;;32.50;24.20;;;;;;4964277;28;20186;-76
2021/04/04 12:19:09;;;;;;;7.07;6.40;;;31.90;24.10;;;;;;4963281;28;20194;-77
2021/04/04 12:21:48;;;;;;;6.17;5.57;;;31.50;23.70;;;;;;4963631;28;21188;-76
2021/04/04 12:24:13;;;;;;;6.07;5.67;;;30.80;23.70;;;;;;4964825;28;20222;-77
2021/04/04 12:26:39;;;;;;;6.00;5.40;;;30.70;24.00;;;;;;4962777;28;20417;-75
2021/04/04 12:29:05;;;;;;;6.50;5.50;;;30.10;24.20;;;;;;4962034;28;20218;-76
2021/04/04 12:31:37;;;;;;;5.70;5.20;;;29.60;24.70;;;;;;4956386;28;21525;-76
2021/04/04 12:34:04;;;;;;;10.93;6.07;;;29.00;25.00;;;;;;4960069;28;20187;-75
2021/04/04 12:36:30;;;;;;;7.67;6.17;;;29.70;24.60;;;;;;4959063;28;20408;-76
2021/04/04 12:38:57;;;;;;;6.70;6.03;;;29.60;25.10;;;;;;4961359;28;21051;-75
2021/04/04 12:41:23;;;;;;;5.97;5.40;;;29.70;25.40;;;;;;4960873;28;21096;-75
2021/04/04 12:43:49;;;;;;;7.17;5.67;;;30.00;25.20;;;;;;4958666;28;20449;-76
2021/04/04 12:46:14;;;;;;;6.37;5.87;;;30.50;25.20;;;;;;4962646;28;20441;-75
2021/04/04 12:48:40;;;;;;;6.67;6.07;;;31.80;24.90;;;;;;4956707;28;20646;-75
2021/04/04 12:51:06;;;;;;;6.40;5.90;;;33.00;24.20;;;;;;4960136;28;20218;-74
2021/04/04 12:53:33;;;;;;;7.20;6.53;;;32.50;23.40;;;;;;4957928;28;20270;-75
2021/04/04 12:56:00;;;;;;;6.77;6.10;;;31.20;24.00;;;;;;4959024;28;20227;-74
2021/04/04 12:58:30;;;;;;;6.77;6.17;;;30.20;24.90;;;;;;4939557;28;20816;-76
2021/04/04 13:00:56;;;;;;;10.27;6.37;;;29.10;24.60;;;;;;4958450;28;20476;-75
2021/04/04 13:03:22;;;;;;;9.30;6.13;;;27.90;25.30;;;;;;4958222;28;21016;-74
2021/04/04 13:05:52;;;;;;;7.70;6.87;;;27.40;26.50;;;;;;4957862;28;20194;-76
2021/04/04 13:08:24;;;;;;;8.07;7.27;;;28.30;26.70;;;;;;4958361;28;20927;-75
2021/04/04 13:10:53;;;;;;;8.70;6.00;;;28.70;25.20;;;;;;4960864;28;20465;-75
2021/04/04 13:13:22;;;;;;;7.60;7.00;;;29.50;25.40;;;;;;4958097;28;20960;-77
2021/04/04 13:15:49;;;;;;;7.57;6.30;;;29.40;25.10;;;;;;4960445;28;20420;-75